LPMA

Details ICAO LPMA (FNC)
Name Madeira/Funchal - Cristiano Ronaldo
Region Portugal
Timezone Atlantic/Madeira (UTC+1.0)
Plans Departing 3070
Arriving 4879
Stats Elevation 189 ft / 58 m (AMSL)
Location 32.697900° -16.774400°
Runways 1
Magnetic Variation 4.657° W
Sunrise 2020-08-04 06:24:35 UTC / 2020-08-04 07:24:35 Local
Sunset 2020-08-04 20:04:17 UTC / 2020-08-04 21:04:17 Local
Advertisement - Login to hide

Runways

ID Width Length Bearing (true/mag) Surface Threshold Overrun Markings Lighting
05 148 ft / 45 m 9,133 ft / 2,784 m 44.60° / 49.25° ASPHALT 482 ft / 147 m 0 ft / 0 m PREC-APP CENTERLINE EDGE THRESHOLD TDZ REIL-OMNI
23 148 ft / 45 m 9,133 ft / 2,784 m 224.61° / 229.27° ASPHALT 482 ft / 147 m 0 ft / 0 m PREC-APP CENTERLINE EDGE THRESHOLD TDZ REIL-OMNI

Map

Weather


0- 5 10 15 20 25 30 35+ Temperature / °C

Clouds and Precipitation
Forecast for 2020-08-04 12:00 UTC. Updated 2 hours ago

Ground ~20,000 ft ~40,000 ft Winds

METAR

LPMA 041100Z 02018KT 340V040 9999 SCT012 26/19 Q1018

TAF

TAF LPMA 040500Z 0406/0506 02015KT 9999 SCT015 SCT030 TEMPO 0406/0412 01020G33KT BKN013

Frequencies

Approach 119.20 MHz
Tower 118.35 MHz
Recorded 124.40 MHz ATIS
Approach 119.60 MHz
Warning: Do not use this data for real-world aviation or navigation. No guarantee of current accuracy is given.